createdAt,value
2023-01-02T00:01:39.214Z,90.52
2023-01-02T00:04:06.362Z,90.51
2023-01-02T00:06:37.394Z,90.34
2023-01-02T00:09:04.687Z,90.38
2023-01-02T00:11:31.767Z,90.60
2023-01-02T00:13:58.407Z,90.65
2023-01-02T00:16:25.290Z,90.67
2023-01-02T00:18:53.705Z,90.88
2023-01-02T00:21:20.290Z,91.21
2023-01-02T00:23:46.858Z,91.45
2023-01-02T00:26:13.356Z,91.66
2023-01-02T00:28:40.007Z,91.99
2023-01-02T00:31:12.983Z,91.99
2023-01-02T00:33:39.694Z,91.65
2023-01-02T00:36:08.308Z,91.33
2023-01-02T00:38:38.032Z,91.29
2023-01-02T00:41:06.231Z,91.27
2023-01-02T00:43:33.069Z,91.19
2023-01-02T00:45:59.756Z,91.32
2023-01-02T00:48:26.288Z,91.27
2023-01-02T00:50:52.929Z,91.45
2023-01-02T00:53:19.921Z,91.55
2023-01-02T00:55:46.442Z,91.73
2023-01-02T00:58:12.980Z,91.82
2023-01-02T01:00:39.657Z,91.88
2023-01-02T01:03:06.390Z,91.70
2023-01-02T01:05:33.063Z,91.84
2023-01-02T01:07:59.707Z,91.66
2023-01-02T01:10:26.457Z,91.77
2023-01-02T01:12:53.073Z,91.84
2023-01-02T01:15:19.791Z,91.81
2023-01-02T01:17:46.520Z,91.53
2023-01-02T01:20:13.097Z,91.46
2023-01-02T01:22:39.796Z,91.37
2023-01-02T01:25:06.790Z,91.38
2023-01-02T01:27:33.346Z,91.70
2023-01-02T01:29:59.956Z,91.82
2023-01-02T01:32:28.435Z,91.55
2023-01-02T01:34:55.361Z,91.63
2023-01-02T01:37:22.037Z,91.97
2023-01-02T01:39:51.515Z,92.11
2023-01-02T01:42:20.606Z,91.96
2023-01-02T01:44:53.538Z,91.97
2023-01-02T01:47:32.192Z,91.96
2023-01-02T01:50:08.121Z,91.86
2023-01-02T01:52:40.599Z,91.85
2023-01-02T01:55:18.745Z,91.92
2023-01-02T01:57:50.791Z,91.94
2023-01-02T02:00:17.850Z,91.87
2023-01-02T02:02:49.691Z,91.75
2023-01-02T02:05:21.389Z,91.72
2023-01-02T02:08:21.831Z,91.89
2023-01-02T02:10:50.473Z,92.11
2023-01-02T02:13:17.288Z,92.04
2023-01-02T02:16:02.816Z,92.29
2023-01-02T02:19:11.367Z,92.42
2023-01-02T02:22:11.466Z,92.16
2023-01-02T02:24:59.950Z,91.85
2023-01-02T02:27:51.470Z,91.77
2023-01-02T02:30:22.558Z,91.45
2023-01-02T02:32:53.943Z,91.52
2023-01-02T02:36:12.771Z,91.51
2023-01-02T02:38:51.941Z,91.54
2023-01-02T02:41:48.532Z,91.64
2023-01-02T02:44:15.046Z,91.55
2023-01-02T02:47:02.512Z,91.52
2023-01-02T02:50:09.499Z,91.53
2023-01-02T02:52:57.471Z,91.60
2023-01-02T02:55:36.267Z,91.57
2023-01-02T02:58:03.635Z,91.62
2023-01-02T03:00:30.236Z,91.79
2023-01-02T03:02:56.971Z,91.55
2023-01-02T03:05:40.377Z,91.63
2023-01-02T03:08:38.273Z,91.36
2023-01-02T03:11:05.171Z,91.04
2023-01-02T03:13:56.346Z,91.10
2023-01-02T03:16:29.375Z,90.94
2023-01-02T03:19:05.192Z,91.18
2023-01-02T03:21:45.340Z,91.51
2023-01-02T03:24:16.332Z,91.56
2023-01-02T03:26:44.505Z,92.03
2023-01-02T03:29:21.486Z,92.22
2023-01-02T03:31:53.991Z,92.38
2023-01-02T03:34:25.165Z,92.19
2023-01-02T03:37:03.149Z,92.50
2023-01-02T03:39:34.383Z,92.41
2023-01-02T03:42:03.375Z,92.27
2023-01-02T03:44:39.792Z,92.74
2023-01-02T03:47:18.438Z,92.58
2023-01-02T03:49:48.268Z,92.41
2023-01-02T03:52:14.997Z,92.65
2023-01-02T03:54:41.859Z,92.66
2023-01-02T03:57:08.465Z,92.87
2023-01-02T04:00:14.227Z,93.04
2023-01-02T04:02:54.808Z,92.90
2023-01-02T04:05:48.399Z,92.78
2023-01-02T04:08:28.319Z,92.67
2023-01-02T04:10:58.856Z,93.21
2023-01-02T04:13:34.654Z,93.13
2023-01-02T04:16:03.653Z,93.28
2023-01-02T04:18:39.058Z,93.21
2023-01-02T04:21:15.179Z,93.13
2023-01-02T04:23:55.821Z,93.20
2023-01-02T04:26:43.889Z,93.28
2023-01-02T04:29:10.786Z,93.53
2023-01-02T04:31:59.016Z,93.76
2023-01-02T04:34:30.456Z,93.65
2023-01-02T04:36:57.136Z,93.67
2023-01-02T04:39:26.312Z,93.94
2023-01-02T04:41:52.858Z,93.77
2023-01-02T04:44:19.529Z,94.19
2023-01-02T04:46:46.071Z,94.08
2023-01-02T04:49:12.620Z,94.16
2023-01-02T04:51:39.252Z,94.16
2023-01-02T04:54:05.825Z,94.37
2023-01-02T04:56:32.382Z,94.51
2023-01-02T04:58:58.956Z,94.54
2023-01-02T05:01:25.621Z,94.77
2023-01-02T05:03:52.376Z,94.71
2023-01-02T05:06:19.428Z,94.94
2023-01-02T05:08:46.084Z,95.13
2023-01-02T05:11:17.840Z,95.27
2023-01-02T05:13:44.795Z,95.57
2023-01-02T05:16:12.022Z,95.32
2023-01-02T05:18:38.631Z,95.11
2023-01-02T05:21:31.334Z,95.19
2023-01-02T05:24:01.257Z,94.90
2023-01-02T05:26:30.466Z,95.11
2023-01-02T05:28:56.973Z,95.18
2023-01-02T05:31:23.677Z,94.97
2023-01-02T05:33:52.061Z,94.93
2023-01-02T05:36:19.338Z,95.21
2023-01-02T05:38:45.959Z,95.23
2023-01-02T05:41:12.458Z,95.22
2023-01-02T05:43:38.968Z,95.31
2023-01-02T05:46:20.214Z,96.04
2023-01-02T05:48:47.249Z,95.79
2023-01-02T05:51:16.721Z,95.35
2023-01-02T05:53:43.583Z,95.56
2023-01-02T05:56:13.251Z,95.39
2023-01-02T05:58:42.730Z,95.37
2023-01-02T06:01:15.746Z,95.77
2023-01-02T06:03:47.104Z,95.86
2023-01-02T06:06:14.569Z,95.82
2023-01-02T06:08:41.624Z,96.17
2023-01-02T06:11:08.232Z,95.93
2023-01-02T06:13:37.057Z,95.73
2023-01-02T06:16:06.289Z,95.51
2023-01-02T06:18:34.337Z,95.16
2023-01-02T06:21:12.458Z,95.19
2023-01-02T06:23:39.362Z,95.10
2023-01-02T06:26:12.170Z,95.44
2023-01-02T06:28:39.456Z,95.16
2023-01-02T06:31:08.358Z,95.56
2023-01-02T06:33:35.870Z,95.19
2023-01-02T06:36:06.090Z,95.60
2023-01-02T06:38:33.009Z,95.38
2023-01-02T06:41:01.116Z,95.52
2023-01-02T06:43:29.253Z,95.51
2023-01-02T06:46:00.860Z,95.64
2023-01-02T06:48:27.806Z,95.81
2023-01-02T06:50:55.122Z,95.41
2023-01-02T06:53:21.648Z,95.17
2023-01-02T06:55:56.615Z,95.31
2023-01-02T06:58:24.648Z,95.66
2023-01-02T07:00:52.221Z,95.53
2023-01-02T07:03:19.023Z,95.44
2023-01-02T07:05:46.076Z,95.71
2023-01-02T07:08:13.012Z,95.77
2023-01-02T07:10:39.660Z,95.68
2023-01-02T07:13:06.316Z,95.34
2023-01-02T07:15:32.990Z,95.27
2023-01-02T07:17:59.761Z,94.80
2023-01-02T07:20:26.876Z,94.63
2023-01-02T07:22:53.940Z,94.43
2023-01-02T07:25:21.520Z,94.19
2023-01-02T07:27:48.337Z,94.04
2023-01-02T07:30:15.263Z,94.13
2023-01-02T07:32:42.770Z,93.90
2023-01-02T07:35:12.732Z,93.94
2023-01-02T07:37:39.932Z,94.25
2023-01-02T07:40:08.587Z,94.25
2023-01-02T07:42:35.125Z,94.20
2023-01-02T07:45:04.318Z,94.64
2023-01-02T07:47:31.601Z,94.83
2023-01-02T07:50:00.745Z,94.44
2023-01-02T07:52:27.452Z,94.53
2023-01-02T07:54:54.003Z,94.47
2023-01-02T07:57:20.559Z,94.74
2023-01-02T07:59:49.495Z,94.60
2023-01-02T08:02:17.666Z,94.16
2023-01-02T08:04:47.805Z,94.24
2023-01-02T08:07:14.474Z,93.98
2023-01-02T08:09:49.197Z,93.97
2023-01-02T08:12:15.783Z,93.83
2023-01-02T08:14:43.601Z,93.77
2023-01-02T08:17:10.181Z,93.67
2023-01-02T08:19:36.794Z,93.45
2023-01-02T08:22:03.733Z,93.37
2023-01-02T08:24:32.721Z,93.37
2023-01-02T08:26:59.387Z,93.28
2023-01-02T08:29:26.043Z,93.05
2023-01-02T08:31:52.702Z,92.98
2023-01-02T08:34:19.387Z,92.87
2023-01-02T08:36:46.093Z,92.64
2023-01-02T08:39:12.645Z,92.65
2023-01-02T08:41:40.594Z,92.80
2023-01-02T08:44:07.320Z,92.72
2023-01-02T08:46:41.982Z,92.63
2023-01-02T08:49:10.512Z,92.56
2023-01-02T08:51:37.230Z,92.24
2023-01-02T08:54:04.511Z,91.88
2023-01-02T08:56:32.676Z,91.35
2023-01-02T08:59:02.491Z,90.97
2023-01-02T09:01:31.052Z,91.12
2023-01-02T09:03:59.295Z,91.01
2023-01-02T09:06:27.760Z,90.81
2023-01-02T09:08:57.059Z,90.26
2023-01-02T09:11:36.380Z,90.25
2023-01-02T09:14:04.377Z,90.35
2023-01-02T09:16:32.490Z,90.03
2023-01-02T09:19:01.013Z,89.91
2023-01-02T09:21:28.588Z,89.95
2023-01-02T09:23:55.340Z,89.98
2023-01-02T09:26:22.068Z,89.88
2023-01-02T09:28:48.883Z,89.79
2023-01-02T09:31:16.661Z,89.58
2023-01-02T09:33:44.867Z,89.48
2023-01-02T09:36:14.944Z,89.44
2023-01-02T09:38:42.028Z,89.72
2023-01-02T09:41:27.037Z,89.39
2023-01-02T09:44:04.975Z,88.88
2023-01-02T09:46:40.476Z,88.59
2023-01-02T09:49:12.577Z,88.70
2023-01-02T09:51:39.633Z,88.33
2023-01-02T09:54:17.833Z,87.95
2023-01-02T09:56:49.133Z,87.74
2023-01-02T09:59:42.590Z,87.37
2023-01-02T10:02:17.596Z,87.45
2023-01-02T10:04:56.750Z,87.49
2023-01-02T10:07:36.777Z,87.11
2023-01-02T10:10:37.301Z,86.96
2023-01-02T10:13:09.687Z,87.32
2023-01-02T10:15:38.214Z,87.01
2023-01-02T10:18:24.078Z,87.11
2023-01-02T10:20:59.353Z,86.90
2023-01-02T10:23:49.347Z,86.48
2023-01-02T10:26:21.637Z,86.35
2023-01-02T10:28:48.153Z,86.34
2023-01-02T10:31:38.853Z,85.87
2023-01-02T10:34:11.310Z,85.49
2023-01-02T10:36:42.902Z,84.74
2023-01-02T10:39:22.026Z,83.92
2023-01-02T10:41:53.213Z,84.02
2023-01-02T10:44:26.271Z,83.11
2023-01-02T10:46:54.217Z,82.76
2023-01-02T10:49:22.939Z,82.57
2023-01-02T10:51:57.628Z,80.20
2023-01-02T10:54:24.253Z,79.99
2023-01-02T10:56:51.324Z,77.68
2023-01-02T10:59:27.289Z,75.66
2023-01-02T11:01:58.902Z,74.87
2023-01-02T11:04:30.119Z,74.86
2023-01-02T11:07:00.094Z,74.31
2023-01-02T11:09:32.842Z,74.96
2023-01-02T11:12:10.090Z,73.53
2023-01-02T11:14:37.379Z,73.06
2023-01-02T11:17:21.760Z,72.77
2023-01-02T11:19:51.656Z,72.84
2023-01-02T11:22:21.570Z,71.86
2023-01-02T11:25:03.212Z,71.27
2023-01-02T11:27:43.730Z,71.66
2023-01-02T11:30:42.317Z,71.77
2023-01-02T11:33:20.252Z,71.61
2023-01-02T11:35:52.548Z,71.94
2023-01-02T11:38:29.413Z,71.57
2023-01-02T11:41:02.287Z,71.27
2023-01-02T11:43:51.256Z,70.59
2023-01-02T11:46:26.939Z,70.85
2023-01-02T11:49:11.128Z,70.82
2023-01-02T11:51:39.820Z,70.39
2023-01-02T11:54:14.054Z,70.53
2023-01-02T11:56:44.278Z,70.13
2023-01-02T11:59:20.590Z,70.35
2023-01-02T12:01:53.269Z,70.17
2023-01-02T12:04:23.033Z,70.38
2023-01-02T12:07:11.870Z,70.77
2023-01-02T12:09:50.691Z,70.52
2023-01-02T12:12:47.660Z,70.90
2023-01-02T12:15:31.809Z,71.22
2023-01-02T12:18:10.761Z,71.64
2023-01-02T12:20:56.193Z,71.74
2023-01-02T12:23:45.235Z,71.46
2023-01-02T12:26:18.547Z,71.56
2023-01-02T12:29:12.366Z,71.86
2023-01-02T12:31:51.410Z,71.93
2023-01-02T12:34:36.926Z,71.82
2023-01-02T12:37:18.183Z,72.08
2023-01-02T12:40:02.937Z,72.20
2023-01-02T12:42:51.689Z,72.54
2023-01-02T12:45:26.475Z,72.52
2023-01-02T12:48:30.138Z,72.42
2023-01-02T12:51:34.306Z,72.85
2023-01-02T12:54:19.623Z,72.92
2023-01-02T12:57:08.209Z,72.76
2023-01-02T12:59:47.924Z,72.80
2023-01-02T13:02:31.038Z,73.16
2023-01-02T13:05:05.667Z,73.14
2023-01-02T13:07:52.517Z,73.07
2023-01-02T13:10:24.159Z,72.73
2023-01-02T13:12:52.034Z,72.51
2023-01-02T13:15:18.689Z,72.74
2023-01-02T13:18:17.163Z,72.60
2023-01-02T13:20:46.840Z,72.78
2023-01-02T13:23:31.638Z,73.22
2023-01-02T13:26:23.149Z,73.41
2023-01-02T13:29:02.900Z,73.42
2023-01-02T13:31:46.614Z,73.49
2023-01-02T13:34:22.311Z,73.00
2023-01-02T13:36:57.915Z,72.44
2023-01-02T13:39:45.138Z,73.03
2023-01-02T13:42:49.860Z,72.83
2023-01-02T13:45:42.523Z,72.62
2023-01-02T13:48:39.537Z,72.55
2023-01-02T13:51:12.600Z,73.00
2023-01-02T13:53:44.906Z,73.15
2023-01-02T13:56:18.117Z,73.11
2023-01-02T13:59:42.472Z,73.27
2023-01-02T14:02:16.406Z,73.39
2023-01-02T14:04:43.354Z,73.24
2023-01-02T14:07:42.367Z,73.54
2023-01-02T14:10:08.948Z,73.80
2023-01-02T14:12:57.000Z,73.95
2023-01-02T14:15:26.112Z,73.80
2023-01-02T14:18:05.016Z,74.18
2023-01-02T14:20:37.956Z,74.35
2023-01-02T14:23:08.908Z,74.73
2023-01-02T14:25:48.371Z,74.94
2023-01-02T14:28:37.187Z,74.81
2023-01-02T14:31:31.497Z,74.95
2023-01-02T14:33:59.487Z,74.65
2023-01-02T14:36:42.589Z,74.49
2023-01-02T14:39:32.864Z,74.52
2023-01-02T14:42:31.659Z,74.58
2023-01-02T14:45:05.912Z,74.75
2023-01-02T14:47:44.537Z,74.81
2023-01-02T14:50:21.093Z,74.92
2023-01-02T14:52:54.832Z,75.06
2023-01-02T14:55:24.990Z,75.11
2023-01-02T14:57:54.005Z,75.23
2023-01-02T15:00:22.143Z,75.33
2023-01-02T15:02:54.356Z,75.52
2023-01-02T15:05:35.724Z,75.61
2023-01-02T15:08:07.706Z,76.00
2023-01-02T15:11:21.150Z,76.29
2023-01-02T15:14:05.402Z,76.61
2023-01-02T15:16:49.805Z,76.84
2023-01-02T15:19:41.075Z,77.19
2023-01-02T15:22:16.604Z,77.29
2023-01-02T15:24:48.531Z,77.68
2023-01-02T15:27:27.501Z,77.92
2023-01-02T15:29:56.383Z,78.04
2023-01-02T15:32:25.898Z,78.20
2023-01-02T15:34:52.887Z,78.23
2023-01-02T15:37:22.036Z,78.13
2023-01-02T15:39:53.083Z,78.40
2023-01-02T15:42:39.999Z,78.56
2023-01-02T15:45:15.429Z,78.77
2023-01-02T15:47:50.511Z,78.86
2023-01-02T15:50:25.951Z,79.06
2023-01-02T15:53:00.114Z,78.96
2023-01-02T15:55:30.704Z,79.12
2023-01-02T15:57:57.374Z,78.92
2023-01-02T16:00:30.780Z,79.07
2023-01-02T16:02:57.516Z,79.37
2023-01-02T16:05:24.698Z,79.64
2023-01-02T16:07:53.370Z,79.81
2023-01-02T16:10:27.692Z,79.97
2023-01-02T16:13:02.781Z,80.05
2023-01-02T16:15:34.051Z,80.06
2023-01-02T16:18:01.641Z,80.27
2023-01-02T16:20:29.252Z,80.37
2023-01-02T16:23:04.152Z,80.49
2023-01-02T16:25:34.693Z,80.58
2023-01-02T16:28:35.034Z,80.59
2023-01-02T16:31:19.108Z,80.84
2023-01-02T16:33:46.124Z,81.17
2023-01-02T16:36:15.619Z,81.53
2023-01-02T16:39:01.731Z,81.21
2023-01-02T16:41:36.519Z,81.63
2023-01-02T16:44:13.561Z,81.63
2023-01-02T16:46:46.316Z,82.30
2023-01-02T16:49:18.049Z,82.40
2023-01-02T16:51:46.922Z,82.46
2023-01-02T16:54:15.166Z,82.71
2023-01-02T16:56:42.239Z,82.85
2023-01-02T16:59:08.966Z,82.91
2023-01-02T17:01:35.644Z,83.09
2023-01-02T17:04:02.421Z,83.25
2023-01-02T17:06:29.173Z,83.30
2023-01-02T17:08:55.989Z,83.70
2023-01-02T17:11:24.560Z,84.27
2023-01-02T17:13:51.967Z,84.33
2023-01-02T17:16:19.766Z,84.65
2023-01-02T17:18:46.430Z,85.12
2023-01-02T17:21:13.118Z,85.54
2023-01-02T17:23:39.636Z,85.42
2023-01-02T17:26:06.320Z,85.12
2023-01-02T17:28:33.174Z,85.05
2023-01-02T17:30:59.732Z,85.26
2023-01-02T17:33:26.340Z,84.95
2023-01-02T17:35:52.984Z,85.18
2023-01-02T17:38:19.654Z,85.61
2023-01-02T17:40:46.319Z,85.20
2023-01-02T17:43:13.010Z,85.42
2023-01-02T17:45:41.986Z,86.07
2023-01-02T17:48:12.670Z,86.30
2023-01-02T17:50:40.277Z,87.09
2023-01-02T17:53:07.687Z,87.32
2023-01-02T17:55:34.753Z,87.21
2023-01-02T17:58:02.452Z,87.13
2023-01-02T18:00:29.071Z,87.73
2023-01-02T18:02:55.703Z,87.43
2023-01-02T18:05:22.672Z,87.27
2023-01-02T18:07:49.508Z,87.44
2023-01-02T18:10:19.956Z,87.43
2023-01-02T18:12:49.151Z,87.31
2023-01-02T18:15:17.933Z,87.49
2023-01-02T18:17:44.543Z,88.02
2023-01-02T18:20:17.337Z,88.14
2023-01-02T18:22:49.595Z,88.35
2023-01-02T18:25:26.423Z,88.54
2023-01-02T18:28:01.101Z,89.03
2023-01-02T18:30:28.375Z,89.06
2023-01-02T18:33:13.272Z,89.28
2023-01-02T18:35:57.135Z,89.38
2023-01-02T18:38:34.845Z,89.87
2023-01-02T18:41:24.522Z,89.52
2023-01-02T18:43:55.874Z,89.50
2023-01-02T18:47:03.138Z,89.83
2023-01-02T18:49:25.067Z,89.85
2023-01-02T18:52:10.087Z,90.19
2023-01-02T18:54:41.112Z,89.93
2023-01-02T18:57:19.076Z,89.74
2023-01-02T18:59:47.400Z,90.67
2023-01-02T19:02:47.014Z,90.83
2023-01-02T19:05:23.317Z,90.81
2023-01-02T19:07:49.940Z,90.95
2023-01-02T19:10:36.686Z,91.41
2023-01-02T19:13:21.761Z,91.59
2023-01-02T19:16:05.100Z,91.57
2023-01-02T19:18:43.896Z,91.42
2023-01-02T19:21:14.655Z,91.40
2023-01-02T19:23:49.257Z,91.41
2023-01-02T19:26:21.657Z,91.28
2023-01-02T19:28:55.290Z,91.84
2023-01-02T19:31:22.767Z,91.83
2023-01-02T19:33:54.201Z,91.95
2023-01-02T19:36:27.965Z,91.92
2023-01-02T19:38:54.556Z,92.31
2023-01-02T19:41:41.094Z,92.35
2023-01-02T19:44:07.885Z,92.30
2023-01-02T19:46:34.578Z,92.54
2023-01-02T19:49:01.303Z,92.44
2023-01-02T19:51:31.426Z,92.15
2023-01-02T19:54:03.803Z,92.27
2023-01-02T19:56:31.507Z,92.23
2023-01-02T19:58:58.106Z,92.46
2023-01-02T20:01:24.814Z,92.50
2023-01-02T20:03:51.527Z,92.58
2023-01-02T20:06:18.170Z,92.65
2023-01-02T20:08:46.379Z,92.47
2023-01-02T20:11:32.915Z,92.73
2023-01-02T20:13:59.495Z,93.17
2023-01-02T20:16:26.293Z,92.78
2023-01-02T20:18:53.000Z,93.12
2023-01-02T20:21:21.372Z,93.19
2023-01-02T20:23:51.515Z,93.04
2023-01-02T20:26:22.747Z,92.84
2023-01-02T20:28:49.572Z,92.80
2023-01-02T20:31:16.120Z,92.88
2023-01-02T20:33:42.861Z,92.86
2023-01-02T20:36:13.806Z,93.08
2023-01-02T20:38:40.720Z,92.92
2023-01-02T20:41:07.349Z,93.09
2023-01-02T20:43:33.923Z,93.28
2023-01-02T20:46:00.541Z,93.72
2023-01-02T20:48:27.191Z,93.45
2023-01-02T20:50:54.509Z,93.44
2023-01-02T20:53:21.185Z,93.79
2023-01-02T20:55:48.058Z,94.29
2023-01-02T20:58:14.698Z,94.57
2023-01-02T21:00:41.833Z,94.61
2023-01-02T21:03:08.620Z,94.63
2023-01-02T21:05:36.116Z,94.58
2023-01-02T21:08:02.763Z,94.51
2023-01-02T21:10:29.291Z,94.50
2023-01-02T21:13:09.960Z,94.41
2023-01-02T21:15:44.731Z,94.08
2023-01-02T21:18:14.652Z,93.85
2023-01-02T21:20:46.289Z,93.98
2023-01-02T21:23:14.160Z,93.87
2023-01-02T21:25:42.440Z,94.08
2023-01-02T21:28:11.892Z,94.29
2023-01-02T21:30:40.196Z,94.16
2023-01-02T21:33:07.570Z,94.09
2023-01-02T21:35:34.696Z,93.92
2023-01-02T21:38:01.795Z,93.94
2023-01-02T21:40:29.129Z,94.22
2023-01-02T21:42:55.738Z,94.50
2023-01-02T21:45:22.957Z,94.54
2023-01-02T21:47:49.559Z,94.51
2023-01-02T21:50:16.857Z,94.62
2023-01-02T21:52:43.660Z,94.82
2023-01-02T21:55:10.721Z,94.60
2023-01-02T22:00:26.338Z,94.63
2023-01-02T22:02:53.810Z,94.44
2023-01-02T22:05:23.107Z,94.33
2023-01-02T22:07:49.720Z,94.35
2023-01-02T22:10:16.623Z,94.62
2023-01-02T22:12:43.272Z,94.88
2023-01-02T22:15:11.887Z,94.84
2023-01-02T22:17:41.068Z,94.49
2023-01-02T22:20:08.261Z,94.59
2023-01-02T22:22:35.471Z,94.04
2023-01-02T22:25:03.512Z,94.16
2023-01-02T22:27:30.611Z,94.12
2023-01-02T22:32:47.023Z,94.61
2023-01-02T22:35:13.821Z,94.87
2023-01-02T22:37:40.408Z,94.75
2023-01-02T22:40:07.618Z,94.53
2023-01-02T22:43:10.094Z,94.67
2023-01-02T22:45:46.191Z,94.86
2023-01-02T22:48:22.593Z,94.90
2023-01-02T22:50:51.308Z,95.25
2023-01-02T22:53:28.150Z,95.12
2023-01-02T22:55:55.374Z,94.89
2023-01-02T22:58:22.686Z,94.66
2023-01-02T23:00:58.592Z,94.98
2023-01-02T23:03:28.715Z,94.72
2023-01-02T23:05:56.051Z,94.95
2023-01-02T23:08:22.785Z,95.01
2023-01-02T23:10:49.437Z,94.60
2023-01-02T23:13:16.012Z,94.40
2023-01-02T23:16:02.609Z,94.50
2023-01-02T23:18:53.198Z,94.43
2023-01-02T23:21:26.206Z,94.57
2023-01-02T23:23:53.412Z,94.92
2023-01-02T23:26:22.074Z,94.64
2023-01-02T23:31:38.553Z,94.96
2023-01-02T23:34:07.587Z,95.05
2023-01-02T23:36:35.024Z,94.71
2023-01-02T23:39:02.282Z,94.58
2023-01-02T23:41:29.454Z,94.47
2023-01-02T23:43:56.429Z,94.76
2023-01-02T23:46:23.233Z,95.16
2023-01-02T23:48:51.415Z,95.11
2023-01-02T23:51:18.065Z,95.04
2023-01-02T23:53:44.666Z,94.56
2023-01-02T23:56:18.782Z,94.35
2023-01-02T23:58:47.310Z,94.34
